createdAt,value
2023-03-11T00:02:22.694Z,97389.28
2023-03-11T00:04:55.645Z,97391.53
2023-03-11T00:07:28.455Z,97390.13
2023-03-11T00:10:01.468Z,97384.19
2023-03-11T00:12:35.720Z,97383.63
2023-03-11T00:15:08.866Z,97382.19
2023-03-11T00:17:41.557Z,97379.81
2023-03-11T00:20:17.854Z,97378.25
2023-03-11T00:22:51.320Z,97375.03
2023-03-11T00:25:25.261Z,97374.28
2023-03-11T00:27:59.683Z,97378.22
2023-03-11T00:30:32.525Z,97374.25
2023-03-11T00:33:05.610Z,97367.66
2023-03-11T00:35:38.594Z,97366.34
2023-03-11T00:38:13.461Z,97367.59
2023-03-11T00:40:47.299Z,97357.34
2023-03-11T00:43:21.422Z,97355.19
2023-03-11T00:45:54.286Z,97353.63
2023-03-11T00:48:27.292Z,97355.00
2023-03-11T00:51:00.049Z,97356.22
2023-03-11T00:53:32.889Z,97352.13
2023-03-11T00:56:09.240Z,97360.41
2023-03-11T00:58:45.976Z,97358.97
2023-03-11T01:01:21.194Z,97354.81
2023-03-11T01:03:54.288Z,97353.16
2023-03-11T01:06:35.798Z,97356.66
2023-03-11T01:09:12.098Z,97349.75
2023-03-11T01:11:44.919Z,97352.72
2023-03-11T01:14:19.150Z,97352.84
2023-03-11T01:16:51.951Z,97354.63
2023-03-11T01:19:24.679Z,97344.84
2023-03-11T01:21:57.412Z,97342.06
2023-03-11T01:24:30.151Z,97339.66
2023-03-11T01:27:02.936Z,97339.91
2023-03-11T01:29:37.106Z,97337.66
2023-03-11T01:32:10.006Z,97334.53
2023-03-11T01:34:42.894Z,97336.59
2023-03-11T01:37:15.630Z,97332.50
2023-03-11T01:39:48.951Z,97335.41
2023-03-11T01:42:21.671Z,97338.34
2023-03-11T01:44:56.285Z,97330.59
2023-03-11T01:47:37.557Z,97330.75
2023-03-11T01:50:13.517Z,97328.31
2023-03-11T01:52:46.783Z,97328.59
2023-03-11T01:55:20.812Z,97319.19
2023-03-11T01:57:55.024Z,97316.78
2023-03-11T02:00:32.440Z,97316.91
2023-03-11T02:03:10.184Z,97310.72
2023-03-11T02:05:43.605Z,97307.94
2023-03-11T02:08:16.607Z,97305.28
2023-03-11T02:10:50.531Z,97309.66
2023-03-11T02:13:23.836Z,97316.78
2023-03-11T02:16:00.781Z,97311.47
2023-03-11T02:18:42.370Z,97307.00
2023-03-11T02:21:28.995Z,97309.53
2023-03-11T02:24:09.185Z,97306.72
2023-03-11T02:26:44.457Z,97314.22
2023-03-11T02:29:19.125Z,97311.41
2023-03-11T02:31:55.676Z,97307.78
2023-03-11T02:34:30.192Z,97308.63
2023-03-11T02:37:05.800Z,97307.78
2023-03-11T02:39:40.550Z,97308.75
2023-03-11T02:42:19.761Z,97307.78
2023-03-11T02:44:56.773Z,97306.81
2023-03-11T02:47:31.750Z,97302.19
2023-03-11T02:50:05.188Z,97297.47
2023-03-11T02:52:38.356Z,97296.38
2023-03-11T02:55:12.014Z,97296.25
2023-03-11T02:57:46.480Z,97296.97
2023-03-11T03:00:24.956Z,97295.03
2023-03-11T03:03:08.976Z,97295.75
2023-03-11T03:05:42.784Z,97293.09
2023-03-11T03:08:15.844Z,97285.94
2023-03-11T03:10:48.772Z,97293.78
2023-03-11T03:13:21.571Z,97286.38
2023-03-11T03:15:55.985Z,97290.63
2023-03-11T03:18:33.480Z,97285.88
2023-03-11T03:21:08.850Z,97291.06
2023-03-11T03:23:41.831Z,97288.13
2023-03-11T03:26:15.298Z,97287.19
2023-03-11T03:28:53.146Z,97288.75
2023-03-11T03:31:27.718Z,97286.78
2023-03-11T03:34:00.671Z,97290.28
2023-03-11T03:36:33.576Z,97285.66
2023-03-11T03:39:09.505Z,97282.88
2023-03-11T03:41:44.789Z,97282.78
2023-03-11T03:44:18.328Z,97280.84
2023-03-11T03:46:54.751Z,97282.66
2023-03-11T03:49:31.109Z,97288.84
2023-03-11T03:52:12.744Z,97283.66
2023-03-11T03:54:49.706Z,97291.25
2023-03-11T03:57:22.649Z,97293.47
2023-03-11T04:00:01.887Z,97286.72
2023-03-11T04:02:39.516Z,97294.84
2023-03-11T04:05:27.929Z,97293.84
2023-03-11T04:08:03.046Z,97289.25
2023-03-11T04:10:36.228Z,97290.09
2023-03-11T04:13:22.727Z,97290.09
2023-03-11T04:15:58.703Z,97289.25
2023-03-11T04:18:33.029Z,97297.13
2023-03-11T04:21:14.294Z,97298.78
2023-03-11T04:23:47.725Z,97289.00
2023-03-11T04:26:26.698Z,97286.22
2023-03-11T04:28:59.677Z,97292.38
2023-03-11T04:31:35.485Z,97285.47
2023-03-11T04:34:14.365Z,97287.31
2023-03-11T04:36:52.302Z,97292.50
2023-03-11T04:39:26.458Z,97279.19
2023-03-11T04:41:59.289Z,97281.84
2023-03-11T04:44:36.652Z,97284.53
2023-03-11T04:47:11.162Z,97278.38
2023-03-11T04:49:45.987Z,97285.75
2023-03-11T04:52:19.100Z,97290.22
2023-03-11T04:54:52.961Z,97286.72
2023-03-11T04:57:27.358Z,97293.84
2023-03-11T05:00:01.954Z,97290.34
2023-03-11T05:02:36.111Z,97282.38
2023-03-11T05:05:13.668Z,97287.69
2023-03-11T05:07:47.598Z,97297.38
2023-03-11T05:10:22.657Z,97298.22
2023-03-11T05:13:07.438Z,97300.72
2023-03-11T05:15:44.468Z,97288.41
2023-03-11T05:18:17.409Z,97291.19
2023-03-11T05:20:54.882Z,97289.38
2023-03-11T05:23:33.822Z,97289.25
2023-03-11T05:26:10.141Z,97287.31
2023-03-11T05:28:44.385Z,97288.13
2023-03-11T05:31:17.906Z,97292.50
2023-03-11T05:33:54.737Z,97290.66
2023-03-11T05:36:31.003Z,97292.38
2023-03-11T05:39:04.229Z,97297.56
2023-03-11T05:41:41.045Z,97299.22
2023-03-11T05:44:14.054Z,97284.13
2023-03-11T05:46:50.602Z,97291.97
2023-03-11T05:49:24.040Z,97286.66
2023-03-11T05:52:00.307Z,97283.13
2023-03-11T05:54:34.911Z,97290.03
2023-03-11T05:57:08.329Z,97297.78
2023-03-11T05:59:43.944Z,97295.94
2023-03-11T06:02:16.906Z,97300.31
2023-03-11T06:04:52.660Z,97295.00
2023-03-11T06:07:27.057Z,97291.38
2023-03-11T06:09:59.994Z,97290.38
2023-03-11T06:12:35.285Z,97299.09
2023-03-11T06:15:17.806Z,97302.56
2023-03-11T06:17:53.001Z,97297.25
2023-03-11T06:20:26.169Z,97305.25
2023-03-11T06:23:00.641Z,97307.91
2023-03-11T06:25:35.501Z,97318.66
2023-03-11T06:28:09.854Z,97314.31
2023-03-11T06:30:44.258Z,97322.28
2023-03-11T06:33:20.274Z,97326.53
2023-03-11T06:35:59.803Z,97319.50
2023-03-11T06:38:37.289Z,97325.81
2023-03-11T06:41:10.544Z,97327.63
2023-03-11T06:43:43.739Z,97328.47
2023-03-11T06:46:17.744Z,97332.22
2023-03-11T06:48:52.345Z,97334.41
2023-03-11T06:51:26.651Z,97332.13
2023-03-11T06:54:00.871Z,97339.53
2023-03-11T06:56:34.210Z,97341.59
2023-03-11T06:59:11.455Z,97344.50
2023-03-11T07:01:44.701Z,97353.03
2023-03-11T07:04:17.520Z,97367.78
2023-03-11T07:06:50.329Z,97368.28
2023-03-11T07:09:29.488Z,97372.44
2023-03-11T07:12:02.612Z,97371.22
2023-03-11T07:14:40.304Z,97378.75
2023-03-11T07:17:13.070Z,97379.00
2023-03-11T07:19:52.548Z,97390.00
2023-03-11T07:22:25.269Z,97379.97
2023-03-11T07:24:59.493Z,97389.91
2023-03-11T07:27:32.270Z,97395.59
2023-03-11T07:30:05.364Z,97389.69
2023-03-11T07:32:38.223Z,97396.91
2023-03-11T07:35:11.035Z,97396.19
2023-03-11T07:37:43.816Z,97405.88
2023-03-11T07:40:18.671Z,97398.59
2023-03-11T07:42:51.483Z,97395.13
2023-03-11T07:45:26.124Z,97409.59
2023-03-11T07:47:58.956Z,97397.53
2023-03-11T07:50:31.734Z,97415.50
2023-03-11T07:53:04.454Z,97414.81
2023-03-11T07:55:38.749Z,97411.66
2023-03-11T07:58:11.473Z,97419.75
2023-03-11T08:00:44.201Z,97422.41
2023-03-11T08:03:16.968Z,97434.00
2023-03-11T08:05:49.728Z,97427.84
2023-03-11T08:08:22.557Z,97441.34
2023-03-11T08:10:56.752Z,97452.09
2023-03-11T08:13:29.553Z,97455.00
2023-03-11T08:16:04.291Z,97458.75
2023-03-11T08:18:37.185Z,97467.69
2023-03-11T08:21:10.764Z,97468.63
2023-03-11T08:23:44.087Z,97464.41
2023-03-11T08:26:19.321Z,97482.38
2023-03-11T08:28:52.209Z,97474.75
2023-03-11T08:31:25.978Z,97477.78
2023-03-11T08:34:00.904Z,97479.81
2023-03-11T08:36:34.034Z,97488.66
2023-03-11T08:39:07.037Z,97495.88
2023-03-11T08:41:41.187Z,97499.25
2023-03-11T08:44:14.063Z,97513.53
2023-03-11T08:46:47.731Z,97518.16
2023-03-11T08:49:23.214Z,97523.66
2023-03-11T08:51:56.044Z,97523.50
2023-03-11T08:54:28.959Z,97535.28
2023-03-11T08:57:04.738Z,97539.34
2023-03-11T08:59:37.601Z,97547.50
2023-03-11T09:02:11.121Z,97552.19
2023-03-11T09:04:43.887Z,97550.59
2023-03-11T09:07:16.794Z,97567.81
2023-03-11T09:09:49.823Z,97570.28
2023-03-11T09:12:24.150Z,97580.75
2023-03-11T09:14:57.431Z,97587.31
2023-03-11T09:17:30.433Z,97588.53
2023-03-11T09:20:03.610Z,97599.94
2023-03-11T09:22:36.445Z,97602.50
2023-03-11T09:25:10.733Z,97618.06
2023-03-11T09:27:44.982Z,97625.63
2023-03-11T09:30:18.077Z,97631.56
2023-03-11T09:32:50.939Z,97644.50
2023-03-11T09:35:23.863Z,97653.59
2023-03-11T09:38:02.609Z,97652.03
2023-03-11T09:40:40.887Z,97668.97
2023-03-11T09:43:18.207Z,97667.75
2023-03-11T09:45:54.488Z,97668.09
2023-03-11T09:48:32.972Z,97686.97
2023-03-11T09:51:11.357Z,97686.41
2023-03-11T09:53:45.125Z,97700.00
2023-03-11T09:56:22.812Z,97699.19
2023-03-11T09:58:58.037Z,97703.94
2023-03-11T10:01:34.301Z,97713.75
2023-03-11T10:04:09.895Z,97722.38
2023-03-11T10:06:43.072Z,97731.94
2023-03-11T10:09:24.598Z,97751.28
2023-03-11T10:12:09.916Z,97763.25
2023-03-11T10:15:03.328Z,97766.66
2023-03-11T10:17:40.989Z,97782.34
2023-03-11T10:20:20.209Z,97793.44
2023-03-11T10:22:57.150Z,97797.38
2023-03-11T10:25:42.962Z,97798.72
2023-03-11T10:28:17.844Z,97812.09
2023-03-11T10:31:00.836Z,97814.16
2023-03-11T10:33:37.702Z,97809.13
2023-03-11T10:36:16.647Z,97821.50
2023-03-11T10:38:53.010Z,97828.69
2023-03-11T10:41:47.590Z,97840.97
2023-03-11T10:44:25.101Z,97839.91
2023-03-11T10:47:01.358Z,97845.03
2023-03-11T10:49:37.386Z,97856.63
2023-03-11T10:52:10.316Z,97856.72
2023-03-11T10:54:46.389Z,97883.25
2023-03-11T10:57:24.186Z,97882.47
2023-03-11T11:00:09.823Z,97888.72
2023-03-11T11:02:51.744Z,97890.66
2023-03-11T11:05:32.582Z,97898.59
2023-03-11T11:08:07.221Z,97899.63
2023-03-11T11:10:49.871Z,97913.88
2023-03-11T11:13:27.243Z,97919.25
2023-03-11T11:16:01.844Z,97929.81
2023-03-11T11:18:43.228Z,97927.34
2023-03-11T11:21:18.532Z,97939.97
2023-03-11T11:24:04.893Z,97941.94
2023-03-11T11:26:40.351Z,97950.13
2023-03-11T11:29:17.188Z,97961.88
2023-03-11T11:31:59.006Z,97972.44
2023-03-11T11:34:34.677Z,97977.03
2023-03-11T11:37:08.048Z,97977.03
2023-03-11T11:39:51.639Z,97985.88
2023-03-11T11:42:27.520Z,97991.72
2023-03-11T11:45:07.278Z,98001.16
2023-03-11T11:47:44.650Z,98010.78
2023-03-11T11:50:27.544Z,98010.13
2023-03-11T11:53:12.578Z,98014.84
2023-03-11T11:55:51.652Z,98025.94
2023-03-11T11:58:25.418Z,98026.38
2023-03-11T12:01:08.053Z,98034.59
2023-03-11T12:04:02.129Z,98042.84
2023-03-11T12:06:42.148Z,98043.09
2023-03-11T12:09:27.235Z,98057.38
2023-03-11T12:12:15.943Z,98064.78
2023-03-11T12:14:51.482Z,98067.72
2023-03-11T12:17:32.773Z,98088.91
2023-03-11T12:20:12.501Z,98084.59
2023-03-11T12:23:00.764Z,98109.34
2023-03-11T12:25:40.710Z,98109.50
2023-03-11T12:28:22.847Z,98113.84
2023-03-11T12:31:10.216Z,98121.84
2023-03-11T12:33:48.429Z,98130.84
2023-03-11T12:36:36.321Z,98121.22
2023-03-11T12:39:24.991Z,98142.34
2023-03-11T12:42:46.915Z,98151.09
2023-03-11T12:45:44.806Z,98159.78
2023-03-11T12:48:35.814Z,98172.06
2023-03-11T12:51:26.118Z,98179.75
2023-03-11T12:54:00.152Z,98186.75
2023-03-11T12:56:35.811Z,98180.44
2023-03-11T12:59:20.515Z,98198.00
2023-03-11T13:01:57.665Z,98204.94
2023-03-11T13:06:25.726Z,98211.00
2023-03-11T13:09:00.685Z,98227.75
2023-03-11T13:11:43.911Z,98231.03
2023-03-11T13:14:31.049Z,98238.78
2023-03-11T13:17:34.171Z,98243.78
2023-03-11T13:20:50.160Z,98253.22
2023-03-11T13:23:31.321Z,98267.63
2023-03-11T13:26:37.042Z,98254.38
2023-03-11T13:29:45.065Z,98274.00
2023-03-11T13:32:30.655Z,98287.69
2023-03-11T13:35:19.348Z,98293.19
2023-03-11T13:38:12.671Z,98309.06
2023-03-11T13:40:47.888Z,98318.91
2023-03-11T13:43:23.189Z,98335.78
2023-03-11T13:46:01.454Z,98337.72
2023-03-11T13:48:40.609Z,98349.38
2023-03-11T13:51:23.397Z,98355.88
2023-03-11T13:54:00.845Z,98349.97
2023-03-11T13:56:40.834Z,98363.84
2023-03-11T13:59:17.972Z,98376.84
2023-03-11T14:01:57.439Z,98379.13
2023-03-11T14:04:32.460Z,98387.69
2023-03-11T14:07:15.088Z,98394.44
2023-03-11T14:09:48.161Z,98396.09
2023-03-11T14:12:22.527Z,98407.28
2023-03-11T14:15:00.030Z,98413.38
2023-03-11T14:17:33.211Z,98415.94
2023-03-11T14:20:09.519Z,98422.13
2023-03-11T14:22:46.199Z,98433.59
2023-03-11T14:25:24.663Z,98441.31
2023-03-11T14:28:02.332Z,98442.16
2023-03-11T14:30:36.082Z,98450.00
2023-03-11T14:33:26.804Z,98460.44
2023-03-11T14:36:02.804Z,98462.34
2023-03-11T14:38:35.919Z,98473.81
2023-03-11T14:44:13.145Z,98478.31
2023-03-11T14:46:50.474Z,98481.59
2023-03-11T14:49:24.878Z,98483.06
2023-03-11T14:52:02.846Z,98487.41
2023-03-11T14:54:37.655Z,98495.34
2023-03-11T14:57:20.505Z,98504.94
2023-03-11T14:59:57.691Z,98498.09
2023-03-11T15:02:42.159Z,98514.84
2023-03-11T15:05:22.832Z,98518.47
2023-03-11T15:08:01.295Z,98535.31
2023-03-11T15:10:36.889Z,98534.56
2023-03-11T15:13:15.936Z,98540.00
2023-03-11T15:15:58.646Z,98542.56
2023-03-11T15:18:34.063Z,98546.44
2023-03-11T15:21:14.569Z,98548.41
2023-03-11T15:23:49.094Z,98562.72
2023-03-11T15:26:26.600Z,98570.03
2023-03-11T15:29:05.949Z,98573.63
2023-03-11T15:31:44.929Z,98579.97
2023-03-11T15:34:30.982Z,98581.81
2023-03-11T15:37:19.497Z,98592.50
2023-03-11T15:39:53.332Z,98589.09
2023-03-11T15:42:27.335Z,98598.91
2023-03-11T15:45:15.214Z,98602.16
2023-03-11T15:47:50.843Z,98619.41
2023-03-11T15:50:40.203Z,98623.19
2023-03-11T15:53:25.210Z,98634.84
2023-03-11T15:56:07.456Z,98637.66
2023-03-11T15:58:44.316Z,98639.50
2023-03-11T16:01:18.401Z,98640.53
2023-03-11T16:03:53.049Z,98658.22
2023-03-11T16:06:26.135Z,98666.97
2023-03-11T16:09:00.859Z,98668.59
2023-03-11T16:11:34.067Z,98670.19
2023-03-11T16:14:07.409Z,98680.44
2023-03-11T16:16:40.543Z,98688.22
2023-03-11T16:19:15.112Z,98690.91
2023-03-11T16:21:50.588Z,98697.19
2023-03-11T16:24:25.518Z,98696.41
2023-03-11T16:26:58.618Z,98700.84
2023-03-11T16:29:31.752Z,98704.31
2023-03-11T16:32:07.340Z,98721.97
2023-03-11T16:34:41.904Z,98723.88
2023-03-11T16:37:20.713Z,98730.06
2023-03-11T16:39:54.024Z,98734.53
2023-03-11T16:42:27.168Z,98745.13
2023-03-11T16:45:02.172Z,98742.72
2023-03-11T16:47:36.597Z,98750.66
2023-03-11T16:50:13.913Z,98750.81
2023-03-11T16:52:47.011Z,98753.56
2023-03-11T16:55:23.226Z,98765.00
2023-03-11T16:57:57.542Z,98772.81
2023-03-11T17:00:30.793Z,98780.59
2023-03-11T17:03:04.308Z,98784.00
2023-03-11T17:05:38.799Z,98796.28
2023-03-11T17:08:12.971Z,98798.97
2023-03-11T17:10:46.812Z,98798.09
2023-03-11T17:13:19.867Z,98809.38
2023-03-11T17:15:59.886Z,98814.47
2023-03-11T17:18:32.926Z,98824.09
2023-03-11T17:21:14.732Z,98832.69
2023-03-11T17:23:47.972Z,98826.47
2023-03-11T17:26:21.171Z,98830.69
2023-03-11T17:28:54.424Z,98839.53
2023-03-11T17:31:27.472Z,98838.59
2023-03-11T17:34:00.860Z,98846.63
2023-03-11T17:36:35.221Z,98854.53
2023-03-11T17:39:08.386Z,98859.84
2023-03-11T17:41:41.930Z,98865.22
2023-03-11T17:44:14.997Z,98863.53
2023-03-11T17:46:48.209Z,98876.75
2023-03-11T17:49:23.681Z,98880.28
2023-03-11T17:51:59.033Z,98889.19
2023-03-11T17:54:32.149Z,98900.63
2023-03-11T17:57:05.445Z,98902.50
2023-03-11T17:59:38.527Z,98907.03
2023-03-11T18:02:15.069Z,98912.56
2023-03-11T18:04:53.898Z,98918.16
2023-03-11T18:07:28.338Z,98923.72
2023-03-11T18:10:01.311Z,98936.25
2023-03-11T18:12:34.334Z,98936.47
2023-03-11T18:15:14.336Z,98940.31
2023-03-11T18:17:48.304Z,98941.41
2023-03-11T18:20:21.524Z,98952.13
2023-03-11T18:22:56.385Z,98952.31
2023-03-11T18:25:29.461Z,98956.94
2023-03-11T18:28:03.871Z,98966.75
2023-03-11T18:30:38.054Z,98970.44
2023-03-11T18:33:11.071Z,98975.84
2023-03-11T18:35:44.098Z,98978.63
2023-03-11T18:38:18.596Z,98977.88
2023-03-11T18:40:57.781Z,98990.22
2023-03-11T18:43:31.184Z,98986.84
2023-03-11T18:46:09.258Z,98995.66
2023-03-11T18:48:43.198Z,98992.28
2023-03-11T18:51:16.400Z,98994.09
2023-03-11T18:53:50.799Z,99006.44
2023-03-11T18:56:23.866Z,99017.03
2023-03-11T18:58:56.883Z,99017.97
2023-03-11T19:01:29.990Z,99019.78
2023-03-11T19:04:03.100Z,99024.19
2023-03-11T19:06:36.170Z,99031.31
2023-03-11T19:09:11.401Z,99032.28
2023-03-11T19:11:44.386Z,99032.28
2023-03-11T19:14:17.390Z,99038.47
2023-03-11T19:16:50.679Z,99043.66
2023-03-11T19:19:23.796Z,99040.06
2023-03-11T19:21:56.808Z,99042.56
2023-03-11T19:24:31.244Z,99039.81
2023-03-11T19:27:04.376Z,99050.22
2023-03-11T19:29:37.354Z,99048.31
2023-03-11T19:32:10.351Z,99053.47
2023-03-11T19:34:43.350Z,99055.16
2023-03-11T19:37:17.206Z,99059.44
2023-03-11T19:39:51.879Z,99058.47
2023-03-11T19:42:25.963Z,99061.88
2023-03-11T19:44:58.895Z,99071.00
2023-03-11T19:47:32.795Z,99068.63
2023-03-11T19:50:06.498Z,99077.31
2023-03-11T19:52:39.479Z,99069.34
2023-03-11T19:55:13.888Z,99071.13
2023-03-11T19:57:46.927Z,99079.78
2023-03-11T20:00:20.899Z,99080.59
2023-03-11T20:02:56.535Z,99085.50
2023-03-11T20:05:29.721Z,99084.94
2023-03-11T20:08:02.750Z,99084.03
2023-03-11T20:10:40.568Z,99085.00
2023-03-11T20:13:14.174Z,99095.59
2023-03-11T20:15:47.517Z,99102.53
2023-03-11T20:18:20.617Z,99100.75
2023-03-11T20:20:53.738Z,99106.84
2023-03-11T20:23:26.912Z,99098.03
2023-03-11T20:26:01.519Z,99097.19
2023-03-11T20:28:35.021Z,99099.06
2023-03-11T20:31:10.416Z,99112.25
2023-03-11T20:33:43.574Z,99118.53
2023-03-11T20:36:18.882Z,99113.28
2023-03-11T20:38:53.486Z,99123.75
2023-03-11T20:41:29.005Z,99122.75
2023-03-11T20:44:02.056Z,99128.75
2023-03-11T20:46:35.543Z,99132.25
2023-03-11T20:49:08.623Z,99130.59
2023-03-11T20:51:48.096Z,99132.38
2023-03-11T20:54:21.354Z,99139.38
2023-03-11T20:56:55.781Z,99144.56
2023-03-11T20:59:28.953Z,99145.44
2023-03-11T21:02:02.554Z,99147.19
2023-03-11T21:04:35.687Z,99150.72
2023-03-11T21:07:10.336Z,99146.38
2023-03-11T21:09:43.554Z,99148.25
2023-03-11T21:12:18.333Z,99150.97
2023-03-11T21:14:51.622Z,99157.03
2023-03-11T21:17:24.824Z,99148.25
2023-03-11T21:19:58.344Z,99155.28
2023-03-11T21:22:31.421Z,99158.81
2023-03-11T21:25:07.918Z,99161.41
2023-03-11T21:27:43.115Z,99160.47
2023-03-11T21:30:16.490Z,99163.91
2023-03-11T21:32:49.755Z,99166.38
2023-03-11T21:35:23.256Z,99167.19
2023-03-11T21:37:56.338Z,99166.38
2023-03-11T21:40:31.008Z,99165.63
2023-03-11T21:43:05.628Z,99168.47
2023-03-11T21:45:38.738Z,99167.75
2023-03-11T21:48:13.595Z,99175.72
2023-03-11T21:50:48.472Z,99163.69
2023-03-11T21:53:21.648Z,99176.13
2023-03-11T21:55:55.089Z,99183.28
2023-03-11T21:58:29.537Z,99183.44
2023-03-11T22:01:03.569Z,99182.66
2023-03-11T22:03:38.295Z,99185.97
2023-03-11T22:06:13.481Z,99189.84
2023-03-11T22:08:46.551Z,99189.13
2023-03-11T22:11:20.599Z,99191.84
2023-03-11T22:13:56.109Z,99189.91
2023-03-11T22:16:29.090Z,99197.22
2023-03-11T22:19:04.302Z,99193.78
2023-03-11T22:21:37.287Z,99191.28
2023-03-11T22:24:10.430Z,99198.34
2023-03-11T22:26:43.443Z,99207.09
2023-03-11T22:29:18.084Z,99208.03
2023-03-11T22:31:51.198Z,99205.44
2023-03-11T22:34:24.330Z,99208.94
2023-03-11T22:36:59.885Z,99202.00
2023-03-11T22:39:32.839Z,99211.66
2023-03-11T22:42:06.158Z,99212.56
2023-03-11T22:44:40.485Z,99217.81
2023-03-11T22:47:13.506Z,99214.38
2023-03-11T22:49:46.650Z,99221.38
2023-03-11T22:52:19.625Z,99214.34
2023-03-11T22:54:52.743Z,99216.06
2023-03-11T22:57:25.810Z,99216.88
2023-03-11T23:00:00.184Z,99215.97
2023-03-11T23:02:33.182Z,99213.34
2023-03-11T23:05:06.983Z,99216.91
2023-03-11T23:07:40.099Z,99216.06
2023-03-11T23:10:15.248Z,99223.13
2023-03-11T23:12:48.505Z,99217.97
2023-03-11T23:15:22.904Z,99212.81
2023-03-11T23:17:55.899Z,99216.41
2023-03-11T23:20:29.032Z,99212.94
2023-03-11T23:23:02.031Z,99223.53
2023-03-11T23:25:35.625Z,99225.31
2023-03-11T23:28:09.119Z,99233.22
2023-03-11T23:30:43.501Z,99228.03
2023-03-11T23:33:16.470Z,99235.06
2023-03-11T23:35:49.502Z,99233.34
2023-03-11T23:38:22.533Z,99224.63
2023-03-11T23:40:56.085Z,99234.31
2023-03-11T23:43:29.239Z,99230.00
2023-03-11T23:46:03.691Z,99233.50
2023-03-11T23:48:36.762Z,99235.28
2023-03-11T23:51:10.268Z,99234.44
2023-03-11T23:53:43.223Z,99246.72
2023-03-11T23:56:18.103Z,99245.00
2023-03-11T23:58:51.095Z,99243.28
